sensor_id;sensor_type;location;lat;lon;timestamp;P1;durP1;ratioP1;P2;durP2;ratioP2
13975;SDS011;7062;49.792;9.946;2023-04-16T00:01:07;6.10;;;4.10;;
13975;SDS011;7062;49.792;9.946;2023-04-16T00:03:33;7.20;;;4.40;;
13975;SDS011;7062;49.792;9.946;2023-04-16T00:05:59;4.73;;;3.93;;
13975;SDS011;7062;49.792;9.946;2023-04-16T00:08:24;4.77;;;4.23;;
13975;SDS011;7062;49.792;9.946;2023-04-16T00:10:51;4.90;;;4.30;;
13975;SDS011;7062;49.792;9.946;2023-04-16T00:13:18;4.97;;;4.40;;
13975;SDS011;7062;49.792;9.946;2023-04-16T00:15:43;5.50;;;5.00;;
13975;SDS011;7062;49.792;9.946;2023-04-16T00:18:09;6.53;;;4.90;;
13975;SDS011;7062;49.792;9.946;2023-04-16T00:20:35;4.60;;;4.07;;
13975;SDS011;7062;49.792;9.946;2023-04-16T00:23:00;7.30;;;5.33;;
13975;SDS011;7062;49.792;9.946;2023-04-16T00:25:26;5.10;;;4.33;;
13975;SDS011;7062;49.792;9.946;2023-04-16T00:27:51;5.73;;;5.17;;
13975;SDS011;7062;49.792;9.946;2023-04-16T00:30:17;5.27;;;4.77;;
13975;SDS011;7062;49.792;9.946;2023-04-16T00:32:43;5.30;;;4.80;;
13975;SDS011;7062;49.792;9.946;2023-04-16T00:35:09;6.77;;;5.30;;
13975;SDS011;7062;49.792;9.946;2023-04-16T00:37:34;6.77;;;6.07;;
13975;SDS011;7062;49.792;9.946;2023-04-16T00:40:00;6.33;;;5.23;;
13975;SDS011;7062;49.792;9.946;2023-04-16T00:42:26;5.87;;;5.27;;
13975;SDS011;7062;49.792;9.946;2023-04-16T00:44:51;6.97;;;6.27;;
13975;SDS011;7062;49.792;9.946;2023-04-16T00:47:18;6.40;;;5.57;;
13975;SDS011;7062;49.792;9.946;2023-04-16T00:49:44;7.00;;;6.20;;
13975;SDS011;7062;49.792;9.946;2023-04-16T00:52:11;6.73;;;6.13;;
13975;SDS011;7062;49.792;9.946;2023-04-16T00:54:36;7.40;;;6.30;;
13975;SDS011;7062;49.792;9.946;2023-04-16T00:57:02;7.20;;;6.07;;
13975;SDS011;7062;49.792;9.946;2023-04-16T00:59:28;7.27;;;6.33;;
13975;SDS011;7062;49.792;9.946;2023-04-16T01:01:54;9.00;;;6.80;;
13975;SDS011;7062;49.792;9.946;2023-04-16T01:04:19;6.77;;;5.77;;
13975;SDS011;7062;49.792;9.946;2023-04-16T01:06:45;8.07;;;6.87;;
13975;SDS011;7062;49.792;9.946;2023-04-16T01:09:11;7.53;;;6.30;;
13975;SDS011;7062;49.792;9.946;2023-04-16T01:11:36;8.47;;;7.63;;
13975;SDS011;7062;49.792;9.946;2023-04-16T01:14:02;6.83;;;5.97;;
13975;SDS011;7062;49.792;9.946;2023-04-16T01:16:28;7.97;;;6.53;;
13975;SDS011;7062;49.792;9.946;2023-04-16T01:18:54;8.30;;;7.40;;
13975;SDS011;7062;49.792;9.946;2023-04-16T01:21:20;9.40;;;7.57;;
13975;SDS011;7062;49.792;9.946;2023-04-16T01:23:46;10.57;;;7.87;;
13975;SDS011;7062;49.792;9.946;2023-04-16T01:26:11;9.00;;;8.10;;
13975;SDS011;7062;49.792;9.946;2023-04-16T01:28:37;8.73;;;7.20;;
13975;SDS011;7062;49.792;9.946;2023-04-16T01:31:02;7.50;;;6.73;;
13975;SDS011;7062;49.792;9.946;2023-04-16T01:33:28;8.77;;;7.73;;
13975;SDS011;7062;49.792;9.946;2023-04-16T01:35:54;8.47;;;7.57;;
13975;SDS011;7062;49.792;9.946;2023-04-16T01:38:19;7.73;;;6.90;;
13975;SDS011;7062;49.792;9.946;2023-04-16T01:40:45;9.80;;;7.93;;
13975;SDS011;7062;49.792;9.946;2023-04-16T01:43:11;10.20;;;6.87;;
13975;SDS011;7062;49.792;9.946;2023-04-16T01:45:36;10.33;;;7.83;;
13975;SDS011;7062;49.792;9.946;2023-04-16T01:48:02;8.37;;;7.50;;
13975;SDS011;7062;49.792;9.946;2023-04-16T01:50:28;8.20;;;7.07;;
13975;SDS011;7062;49.792;9.946;2023-04-16T01:52:54;8.23;;;6.87;;
13975;SDS011;7062;49.792;9.946;2023-04-16T01:55:20;10.20;;;7.43;;
13975;SDS011;7062;49.792;9.946;2023-04-16T01:57:45;9.07;;;7.83;;
13975;SDS011;7062;49.792;9.946;2023-04-16T02:00:11;9.27;;;7.87;;
13975;SDS011;7062;49.792;9.946;2023-04-16T02:02:37;8.70;;;7.33;;
13975;SDS011;7062;49.792;9.946;2023-04-16T02:05:03;9.87;;;7.13;;
13975;SDS011;7062;49.792;9.946;2023-04-16T02:07:29;10.43;;;7.63;;
13975;SDS011;7062;49.792;9.946;2023-04-16T02:09:55;9.30;;;8.30;;
13975;SDS011;7062;49.792;9.946;2023-04-16T02:12:22;9.77;;;8.40;;
13975;SDS011;7062;49.792;9.946;2023-04-16T02:14:47;10.00;;;8.77;;
13975;SDS011;7062;49.792;9.946;2023-04-16T02:17:13;12.60;;;10.47;;
13975;SDS011;7062;49.792;9.946;2023-04-16T02:19:40;10.70;;;9.13;;
13975;SDS011;7062;49.792;9.946;2023-04-16T02:22:06;10.67;;;8.67;;
13975;SDS011;7062;49.792;9.946;2023-04-16T02:24:31;11.00;;;9.57;;
13975;SDS011;7062;49.792;9.946;2023-04-16T02:26:57;12.80;;;9.53;;
13975;SDS011;7062;49.792;9.946;2023-04-16T02:29:23;10.57;;;9.50;;
13975;SDS011;7062;49.792;9.946;2023-04-16T02:31:48;12.17;;;10.87;;
13975;SDS011;7062;49.792;9.946;2023-04-16T02:34:14;11.37;;;9.87;;
13975;SDS011;7062;49.792;9.946;2023-04-16T02:36:40;12.93;;;10.37;;
13975;SDS011;7062;49.792;9.946;2023-04-16T02:39:06;11.23;;;9.80;;
13975;SDS011;7062;49.792;9.946;2023-04-16T02:41:31;11.87;;;9.70;;
13975;SDS011;7062;49.792;9.946;2023-04-16T02:43:57;12.37;;;11.07;;
13975;SDS011;7062;49.792;9.946;2023-04-16T02:46:23;14.97;;;12.70;;
13975;SDS011;7062;49.792;9.946;2023-04-16T02:48:48;15.13;;;13.20;;
13975;SDS011;7062;49.792;9.946;2023-04-16T02:51:14;17.13;;;14.00;;
13975;SDS011;7062;49.792;9.946;2023-04-16T02:53:40;16.37;;;12.90;;
13975;SDS011;7062;49.792;9.946;2023-04-16T02:56:09;16.23;;;14.10;;
13975;SDS011;7062;49.792;9.946;2023-04-16T02:58:35;16.37;;;13.30;;
13975;SDS011;7062;49.792;9.946;2023-04-16T03:01:01;16.93;;;15.07;;
13975;SDS011;7062;49.792;9.946;2023-04-16T03:03:27;17.10;;;14.43;;
13975;SDS011;7062;49.792;9.946;2023-04-16T03:05:52;18.33;;;15.57;;
13975;SDS011;7062;49.792;9.946;2023-04-16T03:08:18;17.10;;;14.33;;
13975;SDS011;7062;49.792;9.946;2023-04-16T03:10:43;20.83;;;17.20;;
13975;SDS011;7062;49.792;9.946;2023-04-16T03:13:09;19.53;;;17.03;;
13975;SDS011;7062;49.792;9.946;2023-04-16T03:15:35;20.43;;;17.53;;
13975;SDS011;7062;49.792;9.946;2023-04-16T03:18:00;21.07;;;16.20;;
13975;SDS011;7062;49.792;9.946;2023-04-16T03:20:26;21.37;;;17.83;;
13975;SDS011;7062;49.792;9.946;2023-04-16T03:22:52;17.83;;;15.73;;
13975;SDS011;7062;49.792;9.946;2023-04-16T03:25:17;23.83;;;18.07;;
13975;SDS011;7062;49.792;9.946;2023-04-16T03:27:43;20.17;;;17.43;;
13975;SDS011;7062;49.792;9.946;2023-04-16T03:30:12;22.13;;;17.70;;
13975;SDS011;7062;49.792;9.946;2023-04-16T03:32:38;24.03;;;17.87;;
13975;SDS011;7062;49.792;9.946;2023-04-16T03:35:05;21.47;;;18.07;;
13975;SDS011;7062;49.792;9.946;2023-04-16T03:37:31;22.93;;;19.47;;
13975;SDS011;7062;49.792;9.946;2023-04-16T03:39:57;23.73;;;18.33;;
13975;SDS011;7062;49.792;9.946;2023-04-16T03:42:23;23.40;;;18.97;;
13975;SDS011;7062;49.792;9.946;2023-04-16T03:44:49;21.43;;;18.83;;
13975;SDS011;7062;49.792;9.946;2023-04-16T03:47:15;25.37;;;20.20;;
13975;SDS011;7062;49.792;9.946;2023-04-16T03:49:40;24.57;;;20.47;;
13975;SDS011;7062;49.792;9.946;2023-04-16T03:52:06;23.27;;;18.70;;
13975;SDS011;7062;49.792;9.946;2023-04-16T03:54:32;22.73;;;18.57;;
13975;SDS011;7062;49.792;9.946;2023-04-16T03:56:57;23.40;;;19.07;;
13975;SDS011;7062;49.792;9.946;2023-04-16T03:59:23;24.40;;;19.67;;
13975;SDS011;7062;49.792;9.946;2023-04-16T04:01:48;26.90;;;21.00;;
13975;SDS011;7062;49.792;9.946;2023-04-16T04:04:14;22.30;;;19.47;;
13975;SDS011;7062;49.792;9.946;2023-04-16T04:06:41;22.70;;;19.00;;
13975;SDS011;7062;49.792;9.946;2023-04-16T04:09:06;28.10;;;20.40;;
13975;SDS011;7062;49.792;9.946;2023-04-16T04:11:32;25.83;;;20.67;;
13975;SDS011;7062;49.792;9.946;2023-04-16T04:13:58;26.10;;;19.50;;
13975;SDS011;7062;49.792;9.946;2023-04-16T04:16:23;26.87;;;21.33;;
13975;SDS011;7062;49.792;9.946;2023-04-16T04:18:49;24.20;;;18.83;;
13975;SDS011;7062;49.792;9.946;2023-04-16T04:21:14;25.37;;;20.40;;
13975;SDS011;7062;49.792;9.946;2023-04-16T04:23:40;28.03;;;21.13;;
13975;SDS011;7062;49.792;9.946;2023-04-16T04:26:06;25.03;;;21.13;;
13975;SDS011;7062;49.792;9.946;2023-04-16T04:28:33;26.60;;;21.40;;
13975;SDS011;7062;49.792;9.946;2023-04-16T04:30:59;32.70;;;20.90;;
13975;SDS011;7062;49.792;9.946;2023-04-16T04:33:25;26.40;;;20.03;;
13975;SDS011;7062;49.792;9.946;2023-04-16T04:35:52;28.77;;;21.03;;
13975;SDS011;7062;49.792;9.946;2023-04-16T04:38:18;26.97;;;20.40;;
13975;SDS011;7062;49.792;9.946;2023-04-16T04:40:46;28.40;;;22.03;;
13975;SDS011;7062;49.792;9.946;2023-04-16T04:43:12;25.53;;;21.67;;
13975;SDS011;7062;49.792;9.946;2023-04-16T04:45:38;25.03;;;19.73;;
13975;SDS011;7062;49.792;9.946;2023-04-16T04:48:04;25.80;;;21.30;;
13975;SDS011;7062;49.792;9.946;2023-04-16T04:50:30;23.37;;;19.90;;
13975;SDS011;7062;49.792;9.946;2023-04-16T04:52:56;22.47;;;19.77;;
13975;SDS011;7062;49.792;9.946;2023-04-16T04:55:22;23.00;;;19.27;;
13975;SDS011;7062;49.792;9.946;2023-04-16T04:57:48;26.57;;;19.97;;
13975;SDS011;7062;49.792;9.946;2023-04-16T05:00:14;21.63;;;19.27;;
13975;SDS011;7062;49.792;9.946;2023-04-16T05:02:40;24.27;;;21.17;;
13975;SDS011;7062;49.792;9.946;2023-04-16T05:05:06;26.03;;;20.00;;
13975;SDS011;7062;49.792;9.946;2023-04-16T05:07:32;22.87;;;20.00;;
13975;SDS011;7062;49.792;9.946;2023-04-16T05:09:58;24.40;;;20.23;;
13975;SDS011;7062;49.792;9.946;2023-04-16T05:12:23;28.03;;;22.27;;
13975;SDS011;7062;49.792;9.946;2023-04-16T05:14:49;29.63;;;22.20;;
13975;SDS011;7062;49.792;9.946;2023-04-16T05:17:15;23.50;;;20.23;;
13975;SDS011;7062;49.792;9.946;2023-04-16T05:19:40;28.17;;;21.80;;
13975;SDS011;7062;49.792;9.946;2023-04-16T05:22:06;22.20;;;19.77;;
13975;SDS011;7062;49.792;9.946;2023-04-16T05:24:32;26.00;;;20.83;;
13975;SDS011;7062;49.792;9.946;2023-04-16T05:26:57;23.13;;;20.67;;
13975;SDS011;7062;49.792;9.946;2023-04-16T05:29:23;25.73;;;21.70;;
13975;SDS011;7062;49.792;9.946;2023-04-16T05:31:49;25.67;;;21.23;;
13975;SDS011;7062;49.792;9.946;2023-04-16T05:34:14;26.30;;;22.17;;
13975;SDS011;7062;49.792;9.946;2023-04-16T05:36:40;25.23;;;21.80;;
13975;SDS011;7062;49.792;9.946;2023-04-16T05:39:06;22.60;;;19.70;;
13975;SDS011;7062;49.792;9.946;2023-04-16T05:41:34;27.07;;;21.60;;
13975;SDS011;7062;49.792;9.946;2023-04-16T05:44:00;26.33;;;22.33;;
13975;SDS011;7062;49.792;9.946;2023-04-16T05:46:26;28.37;;;23.13;;
13975;SDS011;7062;49.792;9.946;2023-04-16T05:48:51;24.40;;;21.87;;
13975;SDS011;7062;49.792;9.946;2023-04-16T05:51:17;24.07;;;21.57;;
13975;SDS011;7062;49.792;9.946;2023-04-16T05:53:42;28.77;;;22.80;;
13975;SDS011;7062;49.792;9.946;2023-04-16T05:56:08;26.53;;;22.67;;
13975;SDS011;7062;49.792;9.946;2023-04-16T05:58:34;26.43;;;21.70;;
13975;SDS011;7062;49.792;9.946;2023-04-16T06:01:00;26.27;;;21.57;;
13975;SDS011;7062;49.792;9.946;2023-04-16T06:03:26;26.20;;;21.23;;
13975;SDS011;7062;49.792;9.946;2023-04-16T06:05:51;24.97;;;21.77;;
13975;SDS011;7062;49.792;9.946;2023-04-16T06:08:17;26.07;;;22.03;;
13975;SDS011;7062;49.792;9.946;2023-04-16T06:10:46;27.53;;;21.90;;
13975;SDS011;7062;49.792;9.946;2023-04-16T06:13:12;23.37;;;20.27;;
13975;SDS011;7062;49.792;9.946;2023-04-16T06:15:38;23.67;;;18.63;;
13975;SDS011;7062;49.792;9.946;2023-04-16T06:18:03;22.30;;;19.77;;
13975;SDS011;7062;49.792;9.946;2023-04-16T06:20:29;23.90;;;21.30;;
13975;SDS011;7062;49.792;9.946;2023-04-16T06:22:55;22.77;;;20.23;;
13975;SDS011;7062;49.792;9.946;2023-04-16T06:25:21;22.80;;;20.20;;
13975;SDS011;7062;49.792;9.946;2023-04-16T06:27:47;22.27;;;19.53;;
13975;SDS011;7062;49.792;9.946;2023-04-16T06:30:13;24.87;;;20.70;;
13975;SDS011;7062;49.792;9.946;2023-04-16T06:32:40;20.93;;;18.63;;
13975;SDS011;7062;49.792;9.946;2023-04-16T06:35:06;20.33;;;18.20;;
13975;SDS011;7062;49.792;9.946;2023-04-16T06:37:33;19.40;;;17.40;;
13975;SDS011;7062;49.792;9.946;2023-04-16T06:39:59;21.10;;;17.73;;
13975;SDS011;7062;49.792;9.946;2023-04-16T06:42:25;24.33;;;18.10;;
13975;SDS011;7062;49.792;9.946;2023-04-16T06:44:50;18.43;;;15.97;;
13975;SDS011;7062;49.792;9.946;2023-04-16T06:47:16;20.50;;;17.97;;
13975;SDS011;7062;49.792;9.946;2023-04-16T06:49:41;20.43;;;17.70;;
13975;SDS011;7062;49.792;9.946;2023-04-16T06:52:07;24.30;;;18.57;;
13975;SDS011;7062;49.792;9.946;2023-04-16T06:54:33;20.37;;;17.63;;
13975;SDS011;7062;49.792;9.946;2023-04-16T06:56:59;19.03;;;16.73;;
13975;SDS011;7062;49.792;9.946;2023-04-16T06:59:24;18.77;;;16.77;;
13975;SDS011;7062;49.792;9.946;2023-04-16T07:01:50;19.17;;;17.17;;
13975;SDS011;7062;49.792;9.946;2023-04-16T07:04:16;18.53;;;15.77;;
13975;SDS011;7062;49.792;9.946;2023-04-16T07:06:42;20.33;;;16.07;;
13975;SDS011;7062;49.792;9.946;2023-04-16T07:09:07;18.27;;;16.33;;
13975;SDS011;7062;49.792;9.946;2023-04-16T07:11:33;20.33;;;16.73;;
13975;SDS011;7062;49.792;9.946;2023-04-16T07:13:59;19.80;;;16.10;;
13975;SDS011;7062;49.792;9.946;2023-04-16T07:16:25;20.50;;;16.03;;
13975;SDS011;7062;49.792;9.946;2023-04-16T07:18:51;17.60;;;15.67;;
13975;SDS011;7062;49.792;9.946;2023-04-16T07:21:16;19.20;;;15.27;;
13975;SDS011;7062;49.792;9.946;2023-04-16T07:23:42;17.93;;;15.40;;
13975;SDS011;7062;49.792;9.946;2023-04-16T07:26:07;17.83;;;15.93;;
13975;SDS011;7062;49.792;9.946;2023-04-16T07:28:33;18.97;;;15.00;;
13975;SDS011;7062;49.792;9.946;2023-04-16T07:30:59;17.77;;;15.93;;
13975;SDS011;7062;49.792;9.946;2023-04-16T07:33:25;17.03;;;15.23;;
13975;SDS011;7062;49.792;9.946;2023-04-16T07:35:51;16.53;;;14.53;;
13975;SDS011;7062;49.792;9.946;2023-04-16T07:38:16;16.43;;;14.73;;
13975;SDS011;7062;49.792;9.946;2023-04-16T07:40:42;15.73;;;13.87;;
13975;SDS011;7062;49.792;9.946;2023-04-16T07:43:07;16.33;;;14.70;;
13975;SDS011;7062;49.792;9.946;2023-04-16T07:45:34;17.33;;;15.37;;
13975;SDS011;7062;49.792;9.946;2023-04-16T07:47:59;15.53;;;14.03;;
13975;SDS011;7062;49.792;9.946;2023-04-16T07:50:25;15.83;;;13.70;;
13975;SDS011;7062;49.792;9.946;2023-04-16T07:52:51;16.33;;;13.60;;
13975;SDS011;7062;49.792;9.946;2023-04-16T07:55:17;16.00;;;13.67;;
13975;SDS011;7062;49.792;9.946;2023-04-16T07:57:43;15.97;;;13.57;;
13975;SDS011;7062;49.792;9.946;2023-04-16T08:00:08;16.90;;;15.17;;
13975;SDS011;7062;49.792;9.946;2023-04-16T08:02:34;16.00;;;14.30;;
13975;SDS011;7062;49.792;9.946;2023-04-16T08:05:00;14.90;;;13.30;;
13975;SDS011;7062;49.792;9.946;2023-04-16T08:07:26;15.07;;;13.47;;
13975;SDS011;7062;49.792;9.946;2023-04-16T08:09:52;15.27;;;13.07;;
13975;SDS011;7062;49.792;9.946;2023-04-16T08:12:18;13.70;;;12.23;;
13975;SDS011;7062;49.792;9.946;2023-04-16T08:14:45;15.17;;;12.57;;
13975;SDS011;7062;49.792;9.946;2023-04-16T08:17:11;12.63;;;11.43;;
13975;SDS011;7062;49.792;9.946;2023-04-16T08:19:37;13.20;;;11.87;;
13975;SDS011;7062;49.792;9.946;2023-04-16T08:22:03;14.30;;;11.90;;
13975;SDS011;7062;49.792;9.946;2023-04-16T08:24:29;13.83;;;12.47;;
13975;SDS011;7062;49.792;9.946;2023-04-16T08:26:55;14.93;;;13.13;;
13975;SDS011;7062;49.792;9.946;2023-04-16T08:29:20;13.30;;;11.90;;
13975;SDS011;7062;49.792;9.946;2023-04-16T08:31:48;12.57;;;11.30;;
13975;SDS011;7062;49.792;9.946;2023-04-16T08:34:14;16.20;;;12.13;;
13975;SDS011;7062;49.792;9.946;2023-04-16T08:36:40;13.73;;;12.33;;
13975;SDS011;7062;49.792;9.946;2023-04-16T08:39:05;12.90;;;11.60;;
13975;SDS011;7062;49.792;9.946;2023-04-16T08:41:31;11.87;;;10.87;;
13975;SDS011;7062;49.792;9.946;2023-04-16T08:43:59;14.07;;;11.50;;
13975;SDS011;7062;49.792;9.946;2023-04-16T08:46:27;12.80;;;11.33;;
13975;SDS011;7062;49.792;9.946;2023-04-16T08:48:53;12.53;;;11.23;;
13975;SDS011;7062;49.792;9.946;2023-04-16T08:51:21;12.97;;;11.67;;
13975;SDS011;7062;49.792;9.946;2023-04-16T08:53:50;11.80;;;10.70;;
13975;SDS011;7062;49.792;9.946;2023-04-16T08:56:18;11.97;;;10.77;;
13975;SDS011;7062;49.792;9.946;2023-04-16T08:58:47;11.13;;;9.97;;
13975;SDS011;7062;49.792;9.946;2023-04-16T09:01:14;12.00;;;10.77;;
13975;SDS011;7062;49.792;9.946;2023-04-16T09:03:41;11.70;;;10.07;;
13975;SDS011;7062;49.792;9.946;2023-04-16T09:06:10;10.60;;;9.60;;
13975;SDS011;7062;49.792;9.946;2023-04-16T09:08:36;10.30;;;9.30;;
13975;SDS011;7062;49.792;9.946;2023-04-16T09:11:03;9.53;;;8.53;;
13975;SDS011;7062;49.792;9.946;2023-04-16T09:13:30;10.53;;;9.27;;
13975;SDS011;7062;49.792;9.946;2023-04-16T09:15:55;10.03;;;9.10;;
13975;SDS011;7062;49.792;9.946;2023-04-16T09:18:22;9.93;;;8.93;;
13975;SDS011;7062;49.792;9.946;2023-04-16T09:20:48;10.30;;;9.13;;
13975;SDS011;7062;49.792;9.946;2023-04-16T09:23:16;9.47;;;8.57;;
13975;SDS011;7062;49.792;9.946;2023-04-16T09:25:42;9.27;;;8.37;;
13975;SDS011;7062;49.792;9.946;2023-04-16T09:28:08;9.57;;;8.67;;
13975;SDS011;7062;49.792;9.946;2023-04-16T09:30:34;9.20;;;8.30;;
13975;SDS011;7062;49.792;9.946;2023-04-16T09:33:11;9.20;;;7.30;;
13975;SDS011;7062;49.792;9.946;2023-04-16T09:35:47;8.20;;;7.40;;
13975;SDS011;7062;49.792;9.946;2023-04-16T09:38:13;8.27;;;7.03;;
13975;SDS011;7062;49.792;9.946;2023-04-16T09:40:39;8.03;;;7.10;;
13975;SDS011;7062;49.792;9.946;2023-04-16T09:43:17;8.47;;;7.17;;
13975;SDS011;7062;49.792;9.946;2023-04-16T09:45:52;7.50;;;6.83;;
13975;SDS011;7062;49.792;9.946;2023-04-16T09:48:28;6.70;;;6.00;;
13975;SDS011;7062;49.792;9.946;2023-04-16T09:50:55;6.70;;;6.00;;
13975;SDS011;7062;49.792;9.946;2023-04-16T09:53:22;7.17;;;6.13;;
13975;SDS011;7062;49.792;9.946;2023-04-16T09:55:56;6.30;;;5.70;;
13975;SDS011;7062;49.792;9.946;2023-04-16T09:58:22;6.23;;;5.50;;
13975;SDS011;7062;49.792;9.946;2023-04-16T10:01:10;6.30;;;5.63;;
13975;SDS011;7062;49.792;9.946;2023-04-16T10:03:37;6.07;;;5.47;;
13975;SDS011;7062;49.792;9.946;2023-04-16T10:08:41;6.57;;;5.83;;
13975;SDS011;7062;49.792;9.946;2023-04-16T10:11:18;5.90;;;5.30;;
13975;SDS011;7062;49.792;9.946;2023-04-16T10:13:45;7.87;;;6.63;;
13975;SDS011;7062;49.792;9.946;2023-04-16T10:16:11;6.77;;;5.83;;
13975;SDS011;7062;49.792;9.946;2023-04-16T10:18:38;6.20;;;5.60;;
13975;SDS011;7062;49.792;9.946;2023-04-16T10:21:05;6.83;;;6.13;;
13975;SDS011;7062;49.792;9.946;2023-04-16T10:23:32;6.07;;;5.47;;
13975;SDS011;7062;49.792;9.946;2023-04-16T10:25:59;5.73;;;5.20;;
13975;SDS011;7062;49.792;9.946;2023-04-16T10:28:26;6.23;;;5.27;;
13975;SDS011;7062;49.792;9.946;2023-04-16T10:30:53;8.80;;;7.90;;
13975;SDS011;7062;49.792;9.946;2023-04-16T10:33:22;9.43;;;7.80;;
13975;SDS011;7062;49.792;9.946;2023-04-16T10:38:47;7.97;;;6.40;;
13975;SDS011;7062;49.792;9.946;2023-04-16T10:41:14;8.33;;;7.03;;
13975;SDS011;7062;49.792;9.946;2023-04-16T10:43:42;4.93;;;4.47;;
13975;SDS011;7062;49.792;9.946;2023-04-16T10:48:47;4.90;;;4.40;;
13975;SDS011;7062;49.792;9.946;2023-04-16T10:51:26;5.60;;;5.10;;
13975;SDS011;7062;49.792;9.946;2023-04-16T10:54:01;5.10;;;4.70;;
13975;SDS011;7062;49.792;9.946;2023-04-16T10:56:38;5.47;;;4.97;;
13975;SDS011;7062;49.792;9.946;2023-04-16T10:59:05;5.33;;;4.83;;
13975;SDS011;7062;49.792;9.946;2023-04-16T11:04:24;4.77;;;4.27;;
13975;SDS011;7062;49.792;9.946;2023-04-16T11:12:19;6.20;;;5.60;;
13975;SDS011;7062;49.792;9.946;2023-04-16T11:14:53;4.83;;;4.33;;
13975;SDS011;7062;49.792;9.946;2023-04-16T11:17:27;5.10;;;4.60;;
13975;SDS011;7062;49.792;9.946;2023-04-16T11:19:57;4.70;;;4.30;;
13975;SDS011;7062;49.792;9.946;2023-04-16T11:22:23;4.73;;;4.23;;
13975;SDS011;7062;49.792;9.946;2023-04-16T11:24:53;4.07;;;3.67;;
13975;SDS011;7062;49.792;9.946;2023-04-16T11:27:20;3.37;;;3.07;;
13975;SDS011;7062;49.792;9.946;2023-04-16T11:29:55;3.13;;;2.83;;
13975;SDS011;7062;49.792;9.946;2023-04-16T11:32:34;4.07;;;3.60;;
13975;SDS011;7062;49.792;9.946;2023-04-16T11:35:01;3.13;;;2.70;;
13975;SDS011;7062;49.792;9.946;2023-04-16T11:37:33;3.30;;;2.70;;
13975;SDS011;7062;49.792;9.946;2023-04-16T11:40:00;2.90;;;2.53;;
13975;SDS011;7062;49.792;9.946;2023-04-16T11:42:28;4.47;;;2.30;;
13975;SDS011;7062;49.792;9.946;2023-04-16T11:44:54;3.40;;;2.60;;
13975;SDS011;7062;49.792;9.946;2023-04-16T11:47:22;1.93;;;1.80;;
13975;SDS011;7062;49.792;9.946;2023-04-16T11:49:48;2.60;;;2.40;;
13975;SDS011;7062;49.792;9.946;2023-04-16T11:52:24;3.07;;;2.33;;
13975;SDS011;7062;49.792;9.946;2023-04-16T11:54:54;2.40;;;1.80;;
13975;SDS011;7062;49.792;9.946;2023-04-16T11:57:27;2.70;;;2.33;;
13975;SDS011;7062;49.792;9.946;2023-04-16T11:59:55;4.03;;;3.10;;
13975;SDS011;7062;49.792;9.946;2023-04-16T12:05:07;5.60;;;4.50;;
13975;SDS011;7062;49.792;9.946;2023-04-16T12:07:51;2.37;;;2.10;;
13975;SDS011;7062;49.792;9.946;2023-04-16T12:10:17;1.90;;;1.70;;
13975;SDS011;7062;49.792;9.946;2023-04-16T12:12:42;1.77;;;1.60;;
13975;SDS011;7062;49.792;9.946;2023-04-16T12:15:08;2.53;;;1.57;;
13975;SDS011;7062;49.792;9.946;2023-04-16T12:17:34;2.77;;;1.60;;
13975;SDS011;7062;49.792;9.946;2023-04-16T12:20:01;2.20;;;2.00;;
13975;SDS011;7062;49.792;9.946;2023-04-16T12:22:38;3.27;;;2.30;;
13975;SDS011;7062;49.792;9.946;2023-04-16T12:25:05;2.20;;;2.00;;
13975;SDS011;7062;49.792;9.946;2023-04-16T12:27:47;2.50;;;2.30;;
13975;SDS011;7062;49.792;9.946;2023-04-16T12:30:23;3.20;;;1.80;;
13975;SDS011;7062;49.792;9.946;2023-04-16T12:32:51;2.63;;;2.20;;
13975;SDS011;7062;49.792;9.946;2023-04-16T12:35:35;2.30;;;1.80;;
13975;SDS011;7062;49.792;9.946;2023-04-16T12:38:01;2.17;;;1.60;;
13975;SDS011;7062;49.792;9.946;2023-04-16T12:40:27;3.90;;;2.47;;
13975;SDS011;7062;49.792;9.946;2023-04-16T12:42:53;3.47;;;2.30;;
13975;SDS011;7062;49.792;9.946;2023-04-16T12:45:19;3.37;;;3.07;;
13975;SDS011;7062;49.792;9.946;2023-04-16T12:47:45;3.07;;;2.73;;
13975;SDS011;7062;49.792;9.946;2023-04-16T12:50:11;3.67;;;3.13;;
13975;SDS011;7062;49.792;9.946;2023-04-16T12:52:37;3.80;;;3.47;;
13975;SDS011;7062;49.792;9.946;2023-04-16T12:55:02;4.20;;;3.37;;
13975;SDS011;7062;49.792;9.946;2023-04-16T12:57:28;4.33;;;3.80;;
13975;SDS011;7062;49.792;9.946;2023-04-16T12:59:54;4.40;;;4.00;;
13975;SDS011;7062;49.792;9.946;2023-04-16T13:02:23;3.63;;;3.33;;
13975;SDS011;7062;49.792;9.946;2023-04-16T13:04:50;3.93;;;3.50;;
13975;SDS011;7062;49.792;9.946;2023-04-16T13:07:16;3.70;;;3.37;;
13975;SDS011;7062;49.792;9.946;2023-04-16T13:09:42;3.40;;;3.10;;
13975;SDS011;7062;49.792;9.946;2023-04-16T13:12:08;4.03;;;3.40;;
13975;SDS011;7062;49.792;9.946;2023-04-16T13:14:34;3.67;;;3.30;;
13975;SDS011;7062;49.792;9.946;2023-04-16T13:16:59;3.47;;;3.13;;
13975;SDS011;7062;49.792;9.946;2023-04-16T13:19:25;3.40;;;3.10;;
13975;SDS011;7062;49.792;9.946;2023-04-16T13:21:51;4.33;;;3.93;;
13975;SDS011;7062;49.792;9.946;2023-04-16T13:24:17;3.83;;;3.37;;
13975;SDS011;7062;49.792;9.946;2023-04-16T13:26:43;5.10;;;4.30;;
13975;SDS011;7062;49.792;9.946;2023-04-16T13:29:09;3.67;;;3.37;;
13975;SDS011;7062;49.792;9.946;2023-04-16T13:31:35;4.10;;;3.70;;
13975;SDS011;7062;49.792;9.946;2023-04-16T13:34:01;4.60;;;4.13;;
13975;SDS011;7062;49.792;9.946;2023-04-16T13:36:27;4.83;;;4.27;;
13975;SDS011;7062;49.792;9.946;2023-04-16T13:38:55;4.60;;;4.10;;
13975;SDS011;7062;49.792;9.946;2023-04-16T13:41:20;5.13;;;4.60;;
13975;SDS011;7062;49.792;9.946;2023-04-16T13:43:46;5.37;;;4.40;;
13975;SDS011;7062;49.792;9.946;2023-04-16T13:46:11;4.13;;;3.77;;
13975;SDS011;7062;49.792;9.946;2023-04-16T13:48:37;4.77;;;4.37;;
13975;SDS011;7062;49.792;9.946;2023-04-16T13:51:03;4.63;;;3.90;;
13975;SDS011;7062;49.792;9.946;2023-04-16T13:53:28;4.40;;;3.27;;
13975;SDS011;7062;49.792;9.946;2023-04-16T13:55:54;4.90;;;4.20;;
13975;SDS011;7062;49.792;9.946;2023-04-16T13:58:20;5.40;;;4.83;;
13975;SDS011;7062;49.792;9.946;2023-04-16T14:00:46;4.67;;;4.10;;
13975;SDS011;7062;49.792;9.946;2023-04-16T14:03:11;5.13;;;4.63;;
13975;SDS011;7062;49.792;9.946;2023-04-16T14:05:37;4.80;;;4.40;;
13975;SDS011;7062;49.792;9.946;2023-04-16T14:08:03;4.40;;;4.00;;
13975;SDS011;7062;49.792;9.946;2023-04-16T14:10:29;5.17;;;4.73;;
13975;SDS011;7062;49.792;9.946;2023-04-16T14:12:56;6.57;;;4.87;;
13975;SDS011;7062;49.792;9.946;2023-04-16T14:15:22;5.53;;;4.77;;
13975;SDS011;7062;49.792;9.946;2023-04-16T14:17:50;4.93;;;4.43;;
13975;SDS011;7062;49.792;9.946;2023-04-16T14:20:16;5.00;;;4.43;;
13975;SDS011;7062;49.792;9.946;2023-04-16T14:22:42;5.77;;;5.17;;
13975;SDS011;7062;49.792;9.946;2023-04-16T14:25:08;5.70;;;5.20;;
13975;SDS011;7062;49.792;9.946;2023-04-16T14:27:33;6.30;;;5.70;;
13975;SDS011;7062;49.792;9.946;2023-04-16T14:29:59;7.03;;;6.33;;
13975;SDS011;7062;49.792;9.946;2023-04-16T14:32:25;6.97;;;5.30;;
13975;SDS011;7062;49.792;9.946;2023-04-16T14:34:51;6.07;;;5.50;;
13975;SDS011;7062;49.792;9.946;2023-04-16T14:37:17;5.13;;;4.63;;
13975;SDS011;7062;49.792;9.946;2023-04-16T14:39:43;6.13;;;5.53;;
13975;SDS011;7062;49.792;9.946;2023-04-16T14:42:08;7.03;;;6.33;;
13975;SDS011;7062;49.792;9.946;2023-04-16T14:44:35;6.47;;;5.83;;
13975;SDS011;7062;49.792;9.946;2023-04-16T14:47:00;7.17;;;6.47;;
13975;SDS011;7062;49.792;9.946;2023-04-16T14:49:26;7.37;;;6.00;;
13975;SDS011;7062;49.792;9.946;2023-04-16T14:51:52;7.00;;;6.30;;
13975;SDS011;7062;49.792;9.946;2023-04-16T14:54:18;6.30;;;5.70;;
13975;SDS011;7062;49.792;9.946;2023-04-16T14:56:44;6.57;;;5.93;;
13975;SDS011;7062;49.792;9.946;2023-04-16T14:59:11;7.33;;;6.47;;
13975;SDS011;7062;49.792;9.946;2023-04-16T15:01:37;6.80;;;6.17;;
13975;SDS011;7062;49.792;9.946;2023-04-16T15:04:04;6.97;;;6.27;;